sensor_id;sensor_type;location;lat;lon;timestamp;temperature;humidity
35613;DHT22;22054;51.646;7.078;2023-03-15T00:00:51;3.20;99.90
35613;DHT22;22054;51.646;7.078;2023-03-15T00:03:19;3.40;99.90
35613;DHT22;22054;51.646;7.078;2023-03-15T00:05:46;3.50;99.90
35613;DHT22;22054;51.646;7.078;2023-03-15T00:08:14;3.50;99.90
35613;DHT22;22054;51.646;7.078;2023-03-15T00:10:41;3.50;99.90
35613;DHT22;22054;51.646;7.078;2023-03-15T00:13:08;3.50;99.90
35613;DHT22;22054;51.646;7.078;2023-03-15T00:15:34;3.60;99.90
35613;DHT22;22054;51.646;7.078;2023-03-15T00:18:01;3.60;99.90
35613;DHT22;22054;51.646;7.078;2023-03-15T00:20:28;3.50;99.90
35613;DHT22;22054;51.646;7.078;2023-03-15T00:22:54;3.50;99.90
35613;DHT22;22054;51.646;7.078;2023-03-15T00:25:20;3.40;99.90
35613;DHT22;22054;51.646;7.078;2023-03-15T00:27:46;3.60;99.90
35613;DHT22;22054;51.646;7.078;2023-03-15T00:30:16;3.40;99.90
35613;DHT22;22054;51.646;7.078;2023-03-15T00:32:42;3.30;99.90
35613;DHT22;22054;51.646;7.078;2023-03-15T00:35:10;3.30;99.90
35613;DHT22;22054;51.646;7.078;2023-03-15T00:37:40;3.50;99.90
35613;DHT22;22054;51.646;7.078;2023-03-15T00:40:07;3.20;99.90
35613;DHT22;22054;51.646;7.078;2023-03-15T00:42:34;3.30;99.90
35613;DHT22;22054;51.646;7.078;2023-03-15T00:45:00;3.10;99.90
35613;DHT22;22054;51.646;7.078;2023-03-15T00:47:25;3.20;99.90
35613;DHT22;22054;51.646;7.078;2023-03-15T00:49:51;3.20;99.90
35613;DHT22;22054;51.646;7.078;2023-03-15T00:52:17;3.20;99.90
35613;DHT22;22054;51.646;7.078;2023-03-15T00:54:49;3.20;99.90
35613;DHT22;22054;51.646;7.078;2023-03-15T00:57:18;3.20;99.90
35613;DHT22;22054;51.646;7.078;2023-03-15T00:59:44;3.20;99.90
35613;DHT22;22054;51.646;7.078;2023-03-15T01:02:10;3.10;99.90
35613;DHT22;22054;51.646;7.078;2023-03-15T01:04:36;3.10;99.90
35613;DHT22;22054;51.646;7.078;2023-03-15T01:07:03;3.10;99.90
35613;DHT22;22054;51.646;7.078;2023-03-15T01:09:29;3.20;99.90
35613;DHT22;22054;51.646;7.078;2023-03-15T01:11:56;3.20;99.90
35613;DHT22;22054;51.646;7.078;2023-03-15T01:14:23;3.30;99.90
35613;DHT22;22054;51.646;7.078;2023-03-15T01:16:48;3.40;99.90
35613;DHT22;22054;51.646;7.078;2023-03-15T01:19:15;3.40;99.90
35613;DHT22;22054;51.646;7.078;2023-03-15T01:21:41;3.40;99.90
35613;DHT22;22054;51.646;7.078;2023-03-15T01:24:11;3.30;99.90
35613;DHT22;22054;51.646;7.078;2023-03-15T01:26:39;3.40;99.90
35613;DHT22;22054;51.646;7.078;2023-03-15T01:29:05;3.50;99.90
35613;DHT22;22054;51.646;7.078;2023-03-15T01:31:31;3.40;99.90
35613;DHT22;22054;51.646;7.078;2023-03-15T01:33:58;3.40;99.90
35613;DHT22;22054;51.646;7.078;2023-03-15T01:36:25;3.50;99.90
35613;DHT22;22054;51.646;7.078;2023-03-15T01:38:51;3.60;99.90
35613;DHT22;22054;51.646;7.078;2023-03-15T01:41:19;3.50;99.90
35613;DHT22;22054;51.646;7.078;2023-03-15T01:43:45;3.40;99.90
35613;DHT22;22054;51.646;7.078;2023-03-15T01:49:26;3.50;99.90
35613;DHT22;22054;51.646;7.078;2023-03-15T01:52:07;3.50;99.90
35613;DHT22;22054;51.646;7.078;2023-03-15T01:57:39;3.60;99.90
35613;DHT22;22054;51.646;7.078;2023-03-15T02:00:20;3.60;99.90
35613;DHT22;22054;51.646;7.078;2023-03-15T02:03:03;3.30;99.90
35613;DHT22;22054;51.646;7.078;2023-03-15T02:05:38;3.60;99.90
35613;DHT22;22054;51.646;7.078;2023-03-15T02:08:12;3.50;99.90
35613;DHT22;22054;51.646;7.078;2023-03-15T02:10:46;3.50;99.90
35613;DHT22;22054;51.646;7.078;2023-03-15T02:13:17;3.60;99.90
35613;DHT22;22054;51.646;7.078;2023-03-15T02:15:44;3.50;99.90
35613;DHT22;22054;51.646;7.078;2023-03-15T02:18:15;3.50;99.90
35613;DHT22;22054;51.646;7.078;2023-03-15T02:23:20;3.50;99.90
35613;DHT22;22054;51.646;7.078;2023-03-15T02:28:51;3.40;99.90
35613;DHT22;22054;51.646;7.078;2023-03-15T02:31:18;3.40;99.90
35613;DHT22;22054;51.646;7.078;2023-03-15T02:33:47;3.40;99.90
35613;DHT22;22054;51.646;7.078;2023-03-15T02:36:26;3.40;99.90
35613;DHT22;22054;51.646;7.078;2023-03-15T02:38:54;3.40;99.90
35613;DHT22;22054;51.646;7.078;2023-03-15T02:41:24;3.40;99.90
35613;DHT22;22054;51.646;7.078;2023-03-15T02:43:57;3.30;99.90
35613;DHT22;22054;51.646;7.078;2023-03-15T02:46:26;3.30;99.90
35613;DHT22;22054;51.646;7.078;2023-03-15T02:48:52;3.30;99.90
35613;DHT22;22054;51.646;7.078;2023-03-15T02:51:22;3.30;99.90
35613;DHT22;22054;51.646;7.078;2023-03-15T02:53:48;3.30;99.90
35613;DHT22;22054;51.646;7.078;2023-03-15T02:56:15;3.30;99.90
35613;DHT22;22054;51.646;7.078;2023-03-15T02:58:41;3.30;99.90
35613;DHT22;22054;51.646;7.078;2023-03-15T03:01:11;3.30;99.90
35613;DHT22;22054;51.646;7.078;2023-03-15T03:03:40;3.40;99.90
35613;DHT22;22054;51.646;7.078;2023-03-15T03:06:07;3.30;99.90
35613;DHT22;22054;51.646;7.078;2023-03-15T03:08:33;3.30;99.90
35613;DHT22;22054;51.646;7.078;2023-03-15T03:11:00;3.30;99.90
35613;DHT22;22054;51.646;7.078;2023-03-15T03:13:25;3.40;99.90
35613;DHT22;22054;51.646;7.078;2023-03-15T03:15:51;3.40;99.90
35613;DHT22;22054;51.646;7.078;2023-03-15T03:18:26;3.40;99.90
35613;DHT22;22054;51.646;7.078;2023-03-15T03:20:57;3.40;99.90
35613;DHT22;22054;51.646;7.078;2023-03-15T03:23:24;3.40;99.90
35613;DHT22;22054;51.646;7.078;2023-03-15T03:25:55;3.40;99.90
35613;DHT22;22054;51.646;7.078;2023-03-15T03:28:27;3.40;99.90
35613;DHT22;22054;51.646;7.078;2023-03-15T03:30:55;3.30;99.90
35613;DHT22;22054;51.646;7.078;2023-03-15T03:33:22;3.30;99.90
35613;DHT22;22054;51.646;7.078;2023-03-15T03:35:48;3.30;99.90
35613;DHT22;22054;51.646;7.078;2023-03-15T03:38:14;3.20;99.90
35613;DHT22;22054;51.646;7.078;2023-03-15T03:40:41;3.20;99.90
35613;DHT22;22054;51.646;7.078;2023-03-15T03:43:07;3.20;99.90
35613;DHT22;22054;51.646;7.078;2023-03-15T03:45:34;3.10;99.90
35613;DHT22;22054;51.646;7.078;2023-03-15T03:48:00;3.20;99.90
35613;DHT22;22054;51.646;7.078;2023-03-15T03:50:26;3.10;99.90
35613;DHT22;22054;51.646;7.078;2023-03-15T03:52:52;3.20;99.90
35613;DHT22;22054;51.646;7.078;2023-03-15T03:55:17;3.20;99.90
35613;DHT22;22054;51.646;7.078;2023-03-15T03:57:43;3.20;99.90
35613;DHT22;22054;51.646;7.078;2023-03-15T04:00:12;3.30;99.90
35613;DHT22;22054;51.646;7.078;2023-03-15T04:02:41;3.30;99.90
35613;DHT22;22054;51.646;7.078;2023-03-15T04:05:09;3.20;99.90
35613;DHT22;22054;51.646;7.078;2023-03-15T04:07:35;3.30;99.90
35613;DHT22;22054;51.646;7.078;2023-03-15T04:10:02;3.40;99.90
35613;DHT22;22054;51.646;7.078;2023-03-15T04:12:28;3.40;99.90
35613;DHT22;22054;51.646;7.078;2023-03-15T04:14:54;3.60;99.90
35613;DHT22;22054;51.646;7.078;2023-03-15T04:17:20;3.40;99.90
35613;DHT22;22054;51.646;7.078;2023-03-15T04:19:46;3.40;99.90
35613;DHT22;22054;51.646;7.078;2023-03-15T04:22:12;3.40;99.90
35613;DHT22;22054;51.646;7.078;2023-03-15T04:24:40;3.30;99.90
35613;DHT22;22054;51.646;7.078;2023-03-15T04:27:06;3.20;99.90
35613;DHT22;22054;51.646;7.078;2023-03-15T04:29:32;3.20;99.90
35613;DHT22;22054;51.646;7.078;2023-03-15T04:31:58;3.20;99.90
35613;DHT22;22054;51.646;7.078;2023-03-15T04:34:27;3.40;99.90
35613;DHT22;22054;51.646;7.078;2023-03-15T04:36:54;3.30;99.90
35613;DHT22;22054;51.646;7.078;2023-03-15T04:39:20;3.10;99.90
35613;DHT22;22054;51.646;7.078;2023-03-15T04:41:45;3.10;99.90
35613;DHT22;22054;51.646;7.078;2023-03-15T04:44:11;3.00;99.90
35613;DHT22;22054;51.646;7.078;2023-03-15T04:46:41;2.90;99.90
35613;DHT22;22054;51.646;7.078;2023-03-15T04:49:09;2.70;99.90
35613;DHT22;22054;51.646;7.078;2023-03-15T04:51:35;2.60;99.90
35613;DHT22;22054;51.646;7.078;2023-03-15T04:54:01;2.60;99.90
35613;DHT22;22054;51.646;7.078;2023-03-15T04:56:28;2.70;99.90
35613;DHT22;22054;51.646;7.078;2023-03-15T04:58:55;2.80;99.90
35613;DHT22;22054;51.646;7.078;2023-03-15T05:01:28;2.90;99.90
35613;DHT22;22054;51.646;7.078;2023-03-15T05:03:56;3.00;99.90
35613;DHT22;22054;51.646;7.078;2023-03-15T05:06:22;3.00;99.90
35613;DHT22;22054;51.646;7.078;2023-03-15T05:08:48;3.10;99.90
35613;DHT22;22054;51.646;7.078;2023-03-15T05:11:14;3.10;99.90
35613;DHT22;22054;51.646;7.078;2023-03-15T05:13:39;3.20;99.90
35613;DHT22;22054;51.646;7.078;2023-03-15T05:16:05;3.20;99.90
35613;DHT22;22054;51.646;7.078;2023-03-15T05:18:31;3.30;99.90
35613;DHT22;22054;51.646;7.078;2023-03-15T05:20:57;3.40;99.90
35613;DHT22;22054;51.646;7.078;2023-03-15T05:23:23;3.40;99.90
35613;DHT22;22054;51.646;7.078;2023-03-15T05:25:53;3.30;99.90
35613;DHT22;22054;51.646;7.078;2023-03-15T05:28:24;3.40;99.90
35613;DHT22;22054;51.646;7.078;2023-03-15T05:30:51;3.40;99.90
35613;DHT22;22054;51.646;7.078;2023-03-15T05:33:18;3.40;99.90
35613;DHT22;22054;51.646;7.078;2023-03-15T05:35:45;3.40;99.90
35613;DHT22;22054;51.646;7.078;2023-03-15T05:38:12;3.40;99.90
35613;DHT22;22054;51.646;7.078;2023-03-15T05:40:42;3.50;99.90
35613;DHT22;22054;51.646;7.078;2023-03-15T05:43:09;3.50;99.90
35613;DHT22;22054;51.646;7.078;2023-03-15T05:45:35;3.70;99.90
35613;DHT22;22054;51.646;7.078;2023-03-15T05:48:02;3.80;99.90
35613;DHT22;22054;51.646;7.078;2023-03-15T05:50:28;3.60;99.90
35613;DHT22;22054;51.646;7.078;2023-03-15T05:52:55;3.50;99.90
35613;DHT22;22054;51.646;7.078;2023-03-15T05:55:21;3.70;99.90
35613;DHT22;22054;51.646;7.078;2023-03-15T05:57:48;3.60;99.90
35613;DHT22;22054;51.646;7.078;2023-03-15T06:00:15;3.60;99.90
35613;DHT22;22054;51.646;7.078;2023-03-15T06:02:42;3.60;99.90
35613;DHT22;22054;51.646;7.078;2023-03-15T06:05:09;3.60;99.90
35613;DHT22;22054;51.646;7.078;2023-03-15T06:07:35;3.60;99.90
35613;DHT22;22054;51.646;7.078;2023-03-15T06:10:01;3.50;99.90
35613;DHT22;22054;51.646;7.078;2023-03-15T06:12:27;3.60;99.90
35613;DHT22;22054;51.646;7.078;2023-03-15T06:14:53;3.60;99.90
35613;DHT22;22054;51.646;7.078;2023-03-15T06:17:18;3.70;99.90
35613;DHT22;22054;51.646;7.078;2023-03-15T06:19:44;3.40;99.90
35613;DHT22;22054;51.646;7.078;2023-03-15T06:22:10;3.60;99.90
35613;DHT22;22054;51.646;7.078;2023-03-15T06:24:36;3.50;99.90
35613;DHT22;22054;51.646;7.078;2023-03-15T06:27:02;3.70;99.90
35613;DHT22;22054;51.646;7.078;2023-03-15T06:29:28;3.50;99.90
35613;DHT22;22054;51.646;7.078;2023-03-15T06:31:54;3.40;99.90
35613;DHT22;22054;51.646;7.078;2023-03-15T06:34:20;3.50;99.90
35613;DHT22;22054;51.646;7.078;2023-03-15T06:36:46;3.60;99.90
35613;DHT22;22054;51.646;7.078;2023-03-15T06:39:14;3.60;99.90
35613;DHT22;22054;51.646;7.078;2023-03-15T06:41:40;3.40;99.90
35613;DHT22;22054;51.646;7.078;2023-03-15T06:44:07;3.30;99.90
35613;DHT22;22054;51.646;7.078;2023-03-15T06:46:33;3.30;99.90
35613;DHT22;22054;51.646;7.078;2023-03-15T06:48:59;3.60;99.90
35613;DHT22;22054;51.646;7.078;2023-03-15T06:51:25;3.40;99.90
35613;DHT22;22054;51.646;7.078;2023-03-15T06:53:51;3.50;99.90
35613;DHT22;22054;51.646;7.078;2023-03-15T06:56:17;3.60;99.90
35613;DHT22;22054;51.646;7.078;2023-03-15T06:58:43;3.70;99.90
35613;DHT22;22054;51.646;7.078;2023-03-15T07:01:11;3.90;99.90
35613;DHT22;22054;51.646;7.078;2023-03-15T07:03:38;3.90;99.90
35613;DHT22;22054;51.646;7.078;2023-03-15T07:06:04;4.00;99.90
35613;DHT22;22054;51.646;7.078;2023-03-15T07:08:30;3.80;99.90
35613;DHT22;22054;51.646;7.078;2023-03-15T07:10:56;4.10;99.90
35613;DHT22;22054;51.646;7.078;2023-03-15T07:13:22;4.00;99.90
35613;DHT22;22054;51.646;7.078;2023-03-15T07:15:54;4.10;99.90
35613;DHT22;22054;51.646;7.078;2023-03-15T07:18:21;4.20;99.90
35613;DHT22;22054;51.646;7.078;2023-03-15T07:20:57;4.30;99.90
35613;DHT22;22054;51.646;7.078;2023-03-15T07:23:24;4.20;99.90
35613;DHT22;22054;51.646;7.078;2023-03-15T07:25:50;4.40;99.90
35613;DHT22;22054;51.646;7.078;2023-03-15T07:28:16;4.30;99.90
35613;DHT22;22054;51.646;7.078;2023-03-15T07:30:41;4.40;99.90
35613;DHT22;22054;51.646;7.078;2023-03-15T07:33:07;4.50;99.90
35613;DHT22;22054;51.646;7.078;2023-03-15T07:35:33;4.60;99.90
35613;DHT22;22054;51.646;7.078;2023-03-15T07:37:59;4.70;99.90
35613;DHT22;22054;51.646;7.078;2023-03-15T07:40:25;4.70;99.90
35613;DHT22;22054;51.646;7.078;2023-03-15T07:42:50;4.80;99.90
35613;DHT22;22054;51.646;7.078;2023-03-15T07:45:16;4.80;99.90
35613;DHT22;22054;51.646;7.078;2023-03-15T07:47:42;4.70;99.90
35613;DHT22;22054;51.646;7.078;2023-03-15T07:50:08;4.70;99.90
35613;DHT22;22054;51.646;7.078;2023-03-15T07:52:34;4.80;99.90
35613;DHT22;22054;51.646;7.078;2023-03-15T07:55:01;4.80;99.90
35613;DHT22;22054;51.646;7.078;2023-03-15T07:57:29;4.80;99.90
35613;DHT22;22054;51.646;7.078;2023-03-15T07:59:54;5.00;99.90
35613;DHT22;22054;51.646;7.078;2023-03-15T08:02:20;4.90;99.90
35613;DHT22;22054;51.646;7.078;2023-03-15T08:04:46;5.00;99.90
35613;DHT22;22054;51.646;7.078;2023-03-15T08:07:15;5.10;99.90
35613;DHT22;22054;51.646;7.078;2023-03-15T08:09:40;5.10;99.90
35613;DHT22;22054;51.646;7.078;2023-03-15T08:12:06;5.20;99.90
35613;DHT22;22054;51.646;7.078;2023-03-15T08:14:32;5.20;99.90
35613;DHT22;22054;51.646;7.078;2023-03-15T08:16:58;5.50;99.90
35613;DHT22;22054;51.646;7.078;2023-03-15T08:19:24;5.40;99.90
35613;DHT22;22054;51.646;7.078;2023-03-15T08:21:50;5.50;99.90
35613;DHT22;22054;51.646;7.078;2023-03-15T08:24:19;5.60;99.90
35613;DHT22;22054;51.646;7.078;2023-03-15T08:26:46;5.50;99.90
35613;DHT22;22054;51.646;7.078;2023-03-15T08:29:12;5.60;99.90
35613;DHT22;22054;51.646;7.078;2023-03-15T08:31:38;5.70;99.90
35613;DHT22;22054;51.646;7.078;2023-03-15T08:34:04;5.40;99.90
35613;DHT22;22054;51.646;7.078;2023-03-15T08:36:30;5.40;99.90
35613;DHT22;22054;51.646;7.078;2023-03-15T08:38:57;5.60;99.90
35613;DHT22;22054;51.646;7.078;2023-03-15T08:41:22;6.00;99.90
35613;DHT22;22054;51.646;7.078;2023-03-15T08:43:48;6.30;99.90
35613;DHT22;22054;51.646;7.078;2023-03-15T08:46:14;6.20;99.90
35613;DHT22;22054;51.646;7.078;2023-03-15T08:48:40;6.00;99.90
35613;DHT22;22054;51.646;7.078;2023-03-15T08:51:06;6.30;91.80
35613;DHT22;22054;51.646;7.078;2023-03-15T08:53:33;6.10;16.00
35613;DHT22;22054;51.646;7.078;2023-03-15T08:56:00;6.30;1.00
35613;DHT22;22054;51.646;7.078;2023-03-15T08:58:25;5.70;1.00
35613;DHT22;22054;51.646;7.078;2023-03-15T09:00:51;6.10;24.70
35613;DHT22;22054;51.646;7.078;2023-03-15T09:03:18;5.80;1.00
35613;DHT22;22054;51.646;7.078;2023-03-15T09:05:44;6.00;20.70
35613;DHT22;22054;51.646;7.078;2023-03-15T09:08:10;6.00;1.00
35613;DHT22;22054;51.646;7.078;2023-03-15T09:10:36;6.20;1.00
35613;DHT22;22054;51.646;7.078;2023-03-15T09:13:02;6.30;1.00
35613;DHT22;22054;51.646;7.078;2023-03-15T09:15:27;6.60;1.00
35613;DHT22;22054;51.646;7.078;2023-03-15T09:17:53;7.00;1.00
35613;DHT22;22054;51.646;7.078;2023-03-15T09:20:19;7.00;1.00
35613;DHT22;22054;51.646;7.078;2023-03-15T09:22:53;6.70;1.00
35613;DHT22;22054;51.646;7.078;2023-03-15T09:25:21;6.70;1.00
35613;DHT22;22054;51.646;7.078;2023-03-15T09:27:47;6.90;1.00
35613;DHT22;22054;51.646;7.078;2023-03-15T09:30:13;6.90;1.00
35613;DHT22;22054;51.646;7.078;2023-03-15T09:32:39;6.70;1.00
35613;DHT22;22054;51.646;7.078;2023-03-15T09:35:07;6.90;1.00
35613;DHT22;22054;51.646;7.078;2023-03-15T09:37:35;6.30;1.00
35613;DHT22;22054;51.646;7.078;2023-03-15T09:40:00;6.30;1.00
35613;DHT22;22054;51.646;7.078;2023-03-15T09:51:15;7.80;1.00
35613;DHT22;22054;51.646;7.078;2023-03-15T09:56:52;8.20;1.00
35613;DHT22;22054;51.646;7.078;2023-03-15T09:59:33;8.40;99.90
35613;DHT22;22054;51.646;7.078;2023-03-15T10:02:22;8.70;11.70
35613;DHT22;22054;51.646;7.078;2023-03-15T10:05:05;9.30;25.40
35613;DHT22;22054;51.646;7.078;2023-03-15T10:07:34;9.30;1.00
35613;DHT22;22054;51.646;7.078;2023-03-15T10:10:01;9.20;1.00
35613;DHT22;22054;51.646;7.078;2023-03-15T10:12:33;8.60;1.00
35613;DHT22;22054;51.646;7.078;2023-03-15T10:18:29;11.50;99.90
35613;DHT22;22054;51.646;7.078;2023-03-15T10:24:01;10.00;1.00
35613;DHT22;22054;51.646;7.078;2023-03-15T10:26:36;9.40;1.00
35613;DHT22;22054;51.646;7.078;2023-03-15T10:29:14;9.70;1.00
35613;DHT22;22054;51.646;7.078;2023-03-15T10:31:43;11.10;1.00
35613;DHT22;22054;51.646;7.078;2023-03-15T10:34:12;13.60;1.00
35613;DHT22;22054;51.646;7.078;2023-03-15T10:36:47;16.10;1.00
35613;DHT22;22054;51.646;7.078;2023-03-15T10:39:14;15.40;1.00
35613;DHT22;22054;51.646;7.078;2023-03-15T10:41:43;14.10;1.00
35613;DHT22;22054;51.646;7.078;2023-03-15T10:44:19;12.70;1.00
35613;DHT22;22054;51.646;7.078;2023-03-15T10:47:11;12.20;99.90
35613;DHT22;22054;51.646;7.078;2023-03-15T10:49:47;10.80;1.00
35613;DHT22;22054;51.646;7.078;2023-03-15T10:52:36;10.00;99.90
35613;DHT22;22054;51.646;7.078;2023-03-15T10:55:14;11.40;99.90
35613;DHT22;22054;51.646;7.078;2023-03-15T10:57:54;13.80;1.00
35613;DHT22;22054;51.646;7.078;2023-03-15T11:00:33;15.30;1.00
35613;DHT22;22054;51.646;7.078;2023-03-15T11:03:20;17.20;1.00
35613;DHT22;22054;51.646;7.078;2023-03-15T11:05:54;17.20;1.00
35613;DHT22;22054;51.646;7.078;2023-03-15T11:08:24;18.40;1.00
35613;DHT22;22054;51.646;7.078;2023-03-15T11:11:02;19.70;1.00
35613;DHT22;22054;51.646;7.078;2023-03-15T11:13:30;20.10;1.00
35613;DHT22;22054;51.646;7.078;2023-03-15T11:21:24;15.80;99.90
35613;DHT22;22054;51.646;7.078;2023-03-15T11:23:54;13.70;1.00
35613;DHT22;22054;51.646;7.078;2023-03-15T11:26:22;12.30;1.00
35613;DHT22;22054;51.646;7.078;2023-03-15T11:28:54;13.40;1.00
35613;DHT22;22054;51.646;7.078;2023-03-15T11:31:24;15.80;1.00
35613;DHT22;22054;51.646;7.078;2023-03-15T11:37:25;18.20;99.90
35613;DHT22;22054;51.646;7.078;2023-03-15T11:42:45;21.00;99.90
35613;DHT22;22054;51.646;7.078;2023-03-15T11:48:36;19.60;99.90
35613;DHT22;22054;51.646;7.078;2023-03-15T11:51:06;19.10;99.90
35613;DHT22;22054;51.646;7.078;2023-03-15T11:54:02;19.50;99.90
35613;DHT22;22054;51.646;7.078;2023-03-15T11:59:16;21.30;99.90
35613;DHT22;22054;51.646;7.078;2023-03-15T12:27:34;24.80;99.90
35613;DHT22;22054;51.646;7.078;2023-03-15T12:33:46;22.10;99.90
35613;DHT22;22054;51.646;7.078;2023-03-15T12:36:34;20.50;99.90
35613;DHT22;22054;51.646;7.078;2023-03-15T12:50:38;20.10;99.90
35613;DHT22;22054;51.646;7.078;2023-03-15T12:58:51;19.20;99.90
35613;DHT22;22054;51.646;7.078;2023-03-15T13:01:19;19.10;99.90
35613;DHT22;22054;51.646;7.078;2023-03-15T13:03:53;19.80;99.90
35613;DHT22;22054;51.646;7.078;2023-03-15T13:06:31;21.20;99.90
35613;DHT22;22054;51.646;7.078;2023-03-15T13:09:48;20.00;99.90
35613;DHT22;22054;51.646;7.078;2023-03-15T13:12:44;20.80;99.90
35613;DHT22;22054;51.646;7.078;2023-03-15T13:15:36;22.10;99.90
35613;DHT22;22054;51.646;7.078;2023-03-15T13:18:17;22.60;99.90
35613;DHT22;22054;51.646;7.078;2023-03-15T13:21:08;22.10;99.90
35613;DHT22;22054;51.646;7.078;2023-03-15T13:23:42;20.90;99.90
35613;DHT22;22054;51.646;7.078;2023-03-15T13:31:35;20.40;99.90
35613;DHT22;22054;51.646;7.078;2023-03-15T13:34:21;21.10;99.90
35613;DHT22;22054;51.646;7.078;2023-03-15T13:36:58;22.70;99.90
35613;DHT22;22054;51.646;7.078;2023-03-15T13:39:32;22.50;99.90
35613;DHT22;22054;51.646;7.078;2023-03-15T13:42:04;21.30;99.90
35613;DHT22;22054;51.646;7.078;2023-03-15T13:44:40;20.20;99.90
35613;DHT22;22054;51.646;7.078;2023-03-15T13:47:06;20.00;99.90
35613;DHT22;22054;51.646;7.078;2023-03-15T13:49:33;19.00;99.90
35613;DHT22;22054;51.646;7.078;2023-03-15T13:52:02;18.40;99.90
35613;DHT22;22054;51.646;7.078;2023-03-15T13:54:36;19.00;99.90
35613;DHT22;22054;51.646;7.078;2023-03-15T13:57:06;19.10;99.90
35613;DHT22;22054;51.646;7.078;2023-03-15T13:59:44;19.40;99.90
35613;DHT22;22054;51.646;7.078;2023-03-15T14:02:22;20.30;99.90
35613;DHT22;22054;51.646;7.078;2023-03-15T14:05:04;21.30;99.90
35613;DHT22;22054;51.646;7.078;2023-03-15T14:07:38;21.30;99.90
35613;DHT22;22054;51.646;7.078;2023-03-15T14:12:44;19.70;99.90
35613;DHT22;22054;51.646;7.078;2023-03-15T14:15:21;19.30;99.90
35613;DHT22;22054;51.646;7.078;2023-03-15T14:17:59;20.50;99.90
35613;DHT22;22054;51.646;7.078;2023-03-15T14:20:33;21.60;99.90
35613;DHT22;22054;51.646;7.078;2023-03-15T14:23:04;21.90;99.90
35613;DHT22;22054;51.646;7.078;2023-03-15T14:25:34;21.80;99.90
35613;DHT22;22054;51.646;7.078;2023-03-15T14:28:01;22.50;99.90
35613;DHT22;22054;51.646;7.078;2023-03-15T14:30:34;22.90;99.90
35613;DHT22;22054;51.646;7.078;2023-03-15T14:33:03;22.50;99.90
35613;DHT22;22054;51.646;7.078;2023-03-15T14:35:40;22.10;99.90
35613;DHT22;22054;51.646;7.078;2023-03-15T14:38:25;22.20;99.90
35613;DHT22;22054;51.646;7.078;2023-03-15T14:40:52;21.00;99.90
35613;DHT22;22054;51.646;7.078;2023-03-15T14:43:18;20.00;99.90
35613;DHT22;22054;51.646;7.078;2023-03-15T14:45:46;20.10;99.90
35613;DHT22;22054;51.646;7.078;2023-03-15T14:48:18;19.40;99.90
35613;DHT22;22054;51.646;7.078;2023-03-15T14:50:48;18.20;99.90
35613;DHT22;22054;51.646;7.078;2023-03-15T14:53:17;18.70;99.90
35613;DHT22;22054;51.646;7.078;2023-03-15T14:55:45;19.70;99.90
35613;DHT22;22054;51.646;7.078;2023-03-15T14:58:16;20.40;99.90
35613;DHT22;22054;51.646;7.078;2023-03-15T15:00:45;19.70;99.90
35613;DHT22;22054;51.646;7.078;2023-03-15T15:03:16;19.70;99.90
35613;DHT22;22054;51.646;7.078;2023-03-15T15:05:50;20.00;99.90
35613;DHT22;22054;51.646;7.078;2023-03-15T15:08:19;19.50;99.90
35613;DHT22;22054;51.646;7.078;2023-03-15T15:10:47;19.10;99.90
35613;DHT22;22054;51.646;7.078;2023-03-15T15:13:25;19.20;99.90
35613;DHT22;22054;51.646;7.078;2023-03-15T15:15:53;18.90;99.90
35613;DHT22;22054;51.646;7.078;2023-03-15T15:18:20;18.50;99.90
35613;DHT22;22054;51.646;7.078;2023-03-15T15:20:47;18.90;99.90
35613;DHT22;22054;51.646;7.078;2023-03-15T15:23:34;19.10;99.90
35613;DHT22;22054;51.646;7.078;2023-03-15T15:26:03;18.80;99.90
35613;DHT22;22054;51.646;7.078;2023-03-15T15:28:32;17.70;99.90
35613;DHT22;22054;51.646;7.078;2023-03-15T15:30:59;16.40;99.90
35613;DHT22;22054;51.646;7.078;2023-03-15T15:33:25;15.60;99.90
35613;DHT22;22054;51.646;7.078;2023-03-15T15:35:54;15.10;99.90
35613;DHT22;22054;51.646;7.078;2023-03-15T15:38:28;15.50;99.90
35613;DHT22;22054;51.646;7.078;2023-03-15T15:40:57;15.60;99.90
35613;DHT22;22054;51.646;7.078;2023-03-15T15:43:23;15.70;99.90
35613;DHT22;22054;51.646;7.078;2023-03-15T15:45:48;15.40;99.90
35613;DHT22;22054;51.646;7.078;2023-03-15T15:48:14;15.10;99.90
35613;DHT22;22054;51.646;7.078;2023-03-15T15:50:40;15.60;99.90
35613;DHT22;22054;51.646;7.078;2023-03-15T15:53:06;15.50;99.90
35613;DHT22;22054;51.646;7.078;2023-03-15T15:55:36;15.80;99.90
35613;DHT22;22054;51.646;7.078;2023-03-15T15:58:04;16.30;99.90
35613;DHT22;22054;51.646;7.078;2023-03-15T16:00:30;16.10;99.90
35613;DHT22;22054;51.646;7.078;2023-03-15T16:02:56;15.60;99.90
35613;DHT22;22054;51.646;7.078;2023-03-15T16:05:27;15.30;99.90
35613;DHT22;22054;51.646;7.078;2023-03-15T16:07:54;15.30;99.90
35613;DHT22;22054;51.646;7.078;2023-03-15T16:10:24;15.40;99.90
35613;DHT22;22054;51.646;7.078;2023-03-15T16:12:52;15.20;99.90
35613;DHT22;22054;51.646;7.078;2023-03-15T16:15:19;15.20;99.90
35613;DHT22;22054;51.646;7.078;2023-03-15T16:17:46;15.30;99.90
35613;DHT22;22054;51.646;7.078;2023-03-15T16:20:14;15.20;99.90
35613;DHT22;22054;51.646;7.078;2023-03-15T16:22:54;14.90;99.90
35613;DHT22;22054;51.646;7.078;2023-03-15T16:25:28;14.60;99.90
35613;DHT22;22054;51.646;7.078;2023-03-15T16:27:59;14.50;99.90
35613;DHT22;22054;51.646;7.078;2023-03-15T16:30:28;14.50;99.90
35613;DHT22;22054;51.646;7.078;2023-03-15T16:32:56;14.60;99.90
35613;DHT22;22054;51.646;7.078;2023-03-15T16:35:29;14.50;99.90
35613;DHT22;22054;51.646;7.078;2023-03-15T16:37:58;13.80;99.90
35613;DHT22;22054;51.646;7.078;2023-03-15T16:40:26;13.70;99.90
35613;DHT22;22054;51.646;7.078;2023-03-15T16:42:54;13.60;99.90
35613;DHT22;22054;51.646;7.078;2023-03-15T16:45:20;13.50;99.90
35613;DHT22;22054;51.646;7.078;2023-03-15T16:47:46;13.40;99.90
35613;DHT22;22054;51.646;7.078;2023-03-15T16:50:13;13.40;99.90
35613;DHT22;22054;51.646;7.078;2023-03-15T21:18:40;4.30;1.00
35613;DHT22;22054;51.646;7.078;2023-03-15T21:21:09;4.20;1.00
35613;DHT22;22054;51.646;7.078;2023-03-15T21:23:36;4.20;1.00
35613;DHT22;22054;51.646;7.078;2023-03-15T21:26:07;4.10;1.00
35613;DHT22;22054;51.646;7.078;2023-03-15T21:28:34;4.10;1.00
35613;DHT22;22054;51.646;7.078;2023-03-15T21:31:00;4.20;1.00
35613;DHT22;22054;51.646;7.078;2023-03-15T21:33:27;4.20;1.00
35613;DHT22;22054;51.646;7.078;2023-03-15T21:35:55;4.10;1.00
35613;DHT22;22054;51.646;7.078;2023-03-15T21:38:23;4.10;1.00
35613;DHT22;22054;51.646;7.078;2023-03-15T21:40:50;4.20;1.00
35613;DHT22;22054;51.646;7.078;2023-03-15T21:43:30;4.20;1.00
35613;DHT22;22054;51.646;7.078;2023-03-15T21:46:07;4.10;1.00
35613;DHT22;22054;51.646;7.078;2023-03-15T21:48:36;4.10;1.00
35613;DHT22;22054;51.646;7.078;2023-03-15T21:51:03;4.20;1.00
35613;DHT22;22054;51.646;7.078;2023-03-15T21:53:29;4.00;1.00
35613;DHT22;22054;51.646;7.078;2023-03-15T21:55:58;3.90;1.00
35613;DHT22;22054;51.646;7.078;2023-03-15T21:58:25;3.90;1.00
35613;DHT22;22054;51.646;7.078;2023-03-15T22:01:03;3.90;1.00
35613;DHT22;22054;51.646;7.078;2023-03-15T22:03:32;3.80;1.00
35613;DHT22;22054;51.646;7.078;2023-03-15T22:05:59;4.00;1.00